createdAt,value
2022-10-11T00:00:50.000Z,13.62
2022-10-11T00:01:50.000Z,13.62
2022-10-11T00:02:50.000Z,13.61
2022-10-11T00:03:50.000Z,13.57
2022-10-11T00:04:50.000Z,13.53
2022-10-11T00:05:50.000Z,13.53
2022-10-11T00:06:50.000Z,13.53
2022-10-11T00:07:50.000Z,13.47
2022-10-11T00:08:50.000Z,13.50
2022-10-11T00:09:50.000Z,13.48
2022-10-11T00:10:50.000Z,13.47
2022-10-11T00:11:50.000Z,13.46
2022-10-11T00:12:50.000Z,13.47
2022-10-11T00:13:50.000Z,13.43
2022-10-11T00:14:50.000Z,13.39
2022-10-11T00:15:50.000Z,13.41
2022-10-11T00:16:50.000Z,13.39
2022-10-11T00:17:50.000Z,13.36
2022-10-11T00:18:50.000Z,13.36
2022-10-11T00:19:50.000Z,13.38
2022-10-11T00:20:50.000Z,13.32
2022-10-11T00:21:50.000Z,13.35
2022-10-11T00:22:50.000Z,13.31
2022-10-11T00:23:50.000Z,13.31
2022-10-11T00:24:50.000Z,13.31
2022-10-11T00:25:50.000Z,13.27
2022-10-11T00:26:50.000Z,13.27
2022-10-11T00:27:50.000Z,13.27
2022-10-11T00:28:50.000Z,13.28
2022-10-11T00:29:50.000Z,13.25
2022-10-11T00:30:50.000Z,13.24
2022-10-11T00:31:50.000Z,13.25
2022-10-11T00:32:50.000Z,13.24
2022-10-11T00:33:50.000Z,13.24
2022-10-11T00:34:50.000Z,13.21
2022-10-11T00:35:50.000Z,13.21
2022-10-11T00:36:50.000Z,13.24
2022-10-11T00:37:50.000Z,13.22
2022-10-11T00:38:50.000Z,13.19
2022-10-11T00:39:50.000Z,13.17
2022-10-11T00:40:50.000Z,13.16
2022-10-11T00:41:50.000Z,13.13
2022-10-11T00:42:50.000Z,13.13
2022-10-11T00:43:50.000Z,13.12
2022-10-11T00:44:50.000Z,13.09
2022-10-11T00:45:50.000Z,13.07
2022-10-11T00:46:50.000Z,13.07
2022-10-11T00:47:50.000Z,13.04
2022-10-11T00:48:50.000Z,12.99
2022-10-11T00:49:49.000Z,12.98
2022-10-11T00:50:49.000Z,12.94
2022-10-11T00:51:49.000Z,12.88
2022-10-11T00:52:49.000Z,12.87
2022-10-11T00:53:49.000Z,12.81
2022-10-11T00:54:49.000Z,12.76
2022-10-11T00:55:49.000Z,12.73
2022-10-11T00:56:49.000Z,12.69
2022-10-11T00:57:49.000Z,12.63
2022-10-11T00:58:49.000Z,12.59
2022-10-11T00:59:49.000Z,12.51
2022-10-11T01:00:49.000Z,12.46
2022-10-11T01:01:49.000Z,12.43
2022-10-11T01:02:49.000Z,12.37
2022-10-11T01:03:49.000Z,12.34
2022-10-11T01:04:49.000Z,12.26
2022-10-11T01:05:49.000Z,12.21
2022-10-11T01:06:49.000Z,12.22
2022-10-11T01:07:49.000Z,12.15
2022-10-11T01:08:49.000Z,12.11
2022-10-11T01:09:49.000Z,12.07
2022-10-11T01:10:49.000Z,12.04
2022-10-11T01:11:49.000Z,12.01
2022-10-11T01:12:49.000Z,11.96
2022-10-11T01:13:49.000Z,11.90
2022-10-11T01:14:49.000Z,11.87
2022-10-11T01:15:49.000Z,11.84
2022-10-11T01:16:49.000Z,11.82
2022-10-11T01:17:49.000Z,11.78
2022-10-11T01:18:49.000Z,11.75
2022-10-11T01:19:49.000Z,11.70
2022-10-11T01:20:49.000Z,11.72
2022-10-11T01:21:49.000Z,11.67
2022-10-11T01:22:49.000Z,11.64
2022-10-11T01:23:49.000Z,11.60
2022-10-11T01:24:49.000Z,11.62
2022-10-11T01:25:49.000Z,11.60
2022-10-11T01:26:49.000Z,11.57
2022-10-11T01:27:49.000Z,11.53
2022-10-11T01:28:49.000Z,11.53
2022-10-11T01:29:49.000Z,11.48
2022-10-11T01:30:49.000Z,11.44
2022-10-11T01:31:49.000Z,11.41
2022-10-11T01:32:49.000Z,11.39
2022-10-11T01:33:49.000Z,11.38
2022-10-11T01:34:49.000Z,11.35
2022-10-11T01:35:49.000Z,11.33
2022-10-11T01:36:49.000Z,11.30
2022-10-11T01:37:49.000Z,11.26
2022-10-11T01:38:49.000Z,11.23
2022-10-11T01:39:49.000Z,11.17
2022-10-11T01:40:49.000Z,11.16
2022-10-11T01:41:49.000Z,11.11
2022-10-11T01:42:49.000Z,11.08
2022-10-11T01:43:49.000Z,11.03
2022-10-11T01:44:49.000Z,11.01
2022-10-11T01:45:49.000Z,11.01
2022-10-11T01:46:49.000Z,10.94
2022-10-11T01:47:49.000Z,10.90
2022-10-11T01:48:49.000Z,10.93
2022-10-11T01:49:49.000Z,10.87
2022-10-11T01:50:49.000Z,10.84
2022-10-11T01:51:49.000Z,10.83
2022-10-11T01:52:49.000Z,10.76
2022-10-11T01:53:49.000Z,10.75
2022-10-11T01:54:49.000Z,10.73
2022-10-11T01:55:49.000Z,10.70
2022-10-11T01:56:49.000Z,10.66
2022-10-11T01:57:49.000Z,10.63
2022-10-11T01:58:49.000Z,10.58
2022-10-11T01:59:49.000Z,10.57
2022-10-11T02:00:49.000Z,10.55
2022-10-11T02:01:49.000Z,10.44
2022-10-11T02:02:49.000Z,10.43
2022-10-11T02:03:48.000Z,10.42
2022-10-11T02:04:48.000Z,10.36
2022-10-11T02:05:48.000Z,10.35
2022-10-11T02:06:48.000Z,10.29
2022-10-11T02:07:48.000Z,10.29
2022-10-11T02:08:48.000Z,10.24
2022-10-11T02:09:48.000Z,10.24
2022-10-11T02:10:48.000Z,10.17
2022-10-11T02:11:48.000Z,10.13
2022-10-11T02:12:48.000Z,10.10
2022-10-11T02:13:48.000Z,10.09
2022-10-11T02:14:48.000Z,10.04
2022-10-11T02:15:48.000Z,10.02
2022-10-11T02:16:48.000Z,9.98
2022-10-11T02:17:48.000Z,9.99
2022-10-11T02:18:48.000Z,9.96
2022-10-11T02:19:48.000Z,9.93
2022-10-11T02:20:48.000Z,9.92
2022-10-11T02:21:48.000Z,9.89
2022-10-11T02:22:48.000Z,9.85
2022-10-11T02:23:48.000Z,9.81
2022-10-11T02:24:48.000Z,9.81
2022-10-11T02:25:48.000Z,9.78
2022-10-11T02:26:48.000Z,9.75
2022-10-11T02:27:48.000Z,9.78
2022-10-11T02:28:48.000Z,9.71
2022-10-11T02:29:48.000Z,9.70
2022-10-11T02:30:48.000Z,9.67
2022-10-11T02:31:48.000Z,9.67
2022-10-11T02:32:48.000Z,9.62
2022-10-11T02:33:48.000Z,9.63
2022-10-11T02:34:48.000Z,9.56
2022-10-11T02:35:48.000Z,9.50
2022-10-11T02:36:48.000Z,9.44
2022-10-11T02:37:48.000Z,9.44
2022-10-11T02:38:48.000Z,9.40
2022-10-11T02:39:48.000Z,9.35
2022-10-11T02:40:48.000Z,9.34
2022-10-11T02:41:48.000Z,9.24
2022-10-11T02:42:48.000Z,9.27
2022-10-11T02:43:48.000Z,9.20
2022-10-11T02:44:48.000Z,9.19
2022-10-11T02:45:48.000Z,9.13
2022-10-11T02:46:48.000Z,9.08
2022-10-11T02:47:48.000Z,9.08
2022-10-11T02:48:48.000Z,9.12
2022-10-11T02:49:48.000Z,9.10
2022-10-11T02:50:48.000Z,9.13
2022-10-11T02:51:48.000Z,9.13
2022-10-11T02:52:48.000Z,9.12
2022-10-11T02:53:48.000Z,9.10
2022-10-11T02:54:48.000Z,9.08
2022-10-11T02:55:48.000Z,9.06
2022-10-11T02:56:48.000Z,9.00
2022-10-11T02:57:48.000Z,8.96
2022-10-11T02:58:48.000Z,8.96
2022-10-11T02:59:48.000Z,8.91
2022-10-11T03:00:48.000Z,8.91
2022-10-11T03:01:48.000Z,8.89
2022-10-11T03:02:48.000Z,8.88
2022-10-11T03:03:48.000Z,8.85
2022-10-11T03:04:48.000Z,8.80
2022-10-11T03:05:48.000Z,8.75
2022-10-11T03:06:48.000Z,8.71
2022-10-11T03:07:48.000Z,8.70
2022-10-11T03:08:48.000Z,8.70
2022-10-11T03:09:48.000Z,8.64
2022-10-11T03:10:48.000Z,8.58
2022-10-11T03:10:48.000Z,8.58
2022-10-11T03:11:48.000Z,8.52
2022-10-11T03:11:48.000Z,8.52
2022-10-11T03:12:48.000Z,8.46
2022-10-11T03:12:48.000Z,8.46
2022-10-11T03:13:48.000Z,8.45
2022-10-11T03:13:48.000Z,8.45
2022-10-11T03:14:48.000Z,8.37
2022-10-11T03:14:48.000Z,8.37
2022-10-11T03:15:48.000Z,8.39
2022-10-11T03:16:48.000Z,8.29
2022-10-11T03:17:47.000Z,8.24
2022-10-11T03:18:47.000Z,8.18
2022-10-11T03:19:47.000Z,8.12
2022-10-11T03:20:47.000Z,8.07
2022-10-11T03:21:47.000Z,8.06
2022-10-11T03:22:47.000Z,8.02
2022-10-11T03:23:47.000Z,7.96
2022-10-11T03:24:47.000Z,7.94
2022-10-11T03:25:47.000Z,7.89
2022-10-11T03:26:47.000Z,7.94
2022-10-11T03:27:47.000Z,7.85
2022-10-11T03:28:47.000Z,7.84
2022-10-11T03:29:47.000Z,7.79
2022-10-11T03:30:47.000Z,7.74
2022-10-11T03:31:47.000Z,7.70
2022-10-11T03:32:47.000Z,7.62
2022-10-11T03:33:47.000Z,7.58
2022-10-11T03:34:47.000Z,7.55
2022-10-11T03:35:47.000Z,7.54
2022-10-11T03:36:47.000Z,7.47
2022-10-11T03:37:47.000Z,7.51
2022-10-11T03:38:47.000Z,7.42
2022-10-11T03:39:47.000Z,7.39
2022-10-11T03:40:47.000Z,7.39
2022-10-11T03:41:47.000Z,7.39
2022-10-11T03:42:47.000Z,7.36
2022-10-11T03:43:47.000Z,7.32
2022-10-11T03:44:47.000Z,7.32
2022-10-11T03:45:47.000Z,7.36
2022-10-11T03:46:47.000Z,7.42
2022-10-11T03:47:47.000Z,7.39
2022-10-11T03:48:47.000Z,7.45
2022-10-11T03:49:47.000Z,7.50
2022-10-11T03:50:47.000Z,7.51
2022-10-11T03:51:47.000Z,7.55
2022-10-11T03:52:47.000Z,7.62
2022-10-11T03:53:47.000Z,7.60
2022-10-11T03:54:47.000Z,7.66
2022-10-11T03:55:47.000Z,7.69
2022-10-11T03:56:47.000Z,7.69
2022-10-11T03:57:47.000Z,7.63
2022-10-11T03:58:47.000Z,7.66
2022-10-11T03:59:47.000Z,7.66
2022-10-11T04:00:47.000Z,7.62
2022-10-11T04:01:47.000Z,7.60
2022-10-11T04:02:47.000Z,7.55
2022-10-11T04:03:47.000Z,7.55
2022-10-11T04:04:47.000Z,7.48
2022-10-11T04:05:47.000Z,7.47
2022-10-11T04:06:47.000Z,7.51
2022-10-11T04:07:47.000Z,7.50
2022-10-11T04:08:47.000Z,7.47
2022-10-11T04:09:47.000Z,7.47
2022-10-11T04:10:47.000Z,7.44
2022-10-11T04:11:47.000Z,7.39
2022-10-11T04:12:47.000Z,7.36
2022-10-11T04:13:47.000Z,7.32
2022-10-11T04:14:47.000Z,7.29
2022-10-11T04:15:47.000Z,7.27
2022-10-11T04:16:47.000Z,7.23
2022-10-11T04:17:47.000Z,7.19
2022-10-11T04:18:47.000Z,7.15
2022-10-11T04:19:47.000Z,7.16
2022-10-11T04:20:47.000Z,7.14
2022-10-11T04:21:47.000Z,7.08
2022-10-11T04:22:47.000Z,7.05
2022-10-11T04:23:47.000Z,6.99
2022-10-11T04:24:47.000Z,6.93
2022-10-11T04:25:47.000Z,6.90
2022-10-11T04:26:47.000Z,6.86
2022-10-11T04:27:47.000Z,6.83
2022-10-11T04:28:47.000Z,6.81
2022-10-11T04:29:47.000Z,6.73
2022-10-11T04:30:46.000Z,6.71
2022-10-11T04:31:46.000Z,6.64
2022-10-11T04:32:46.000Z,6.60
2022-10-11T04:33:46.000Z,6.57
2022-10-11T04:34:46.000Z,6.53
2022-10-11T04:35:46.000Z,6.50
2022-10-11T04:36:46.000Z,6.53
2022-10-11T04:37:46.000Z,6.48
2022-10-11T04:38:46.000Z,6.48
2022-10-11T04:39:46.000Z,6.45
2022-10-11T04:40:46.000Z,6.39
2022-10-11T04:41:46.000Z,6.39
2022-10-11T04:42:46.000Z,6.42
2022-10-11T04:43:46.000Z,6.38
2022-10-11T04:44:46.000Z,6.32
2022-10-11T04:45:46.000Z,6.27
2022-10-11T04:46:46.000Z,6.21
2022-10-11T04:47:46.000Z,6.21
2022-10-11T04:48:46.000Z,6.17
2022-10-11T04:49:46.000Z,6.20
2022-10-11T04:50:46.000Z,6.16
2022-10-11T04:51:46.000Z,6.17
2022-10-11T04:52:46.000Z,6.16
2022-10-11T04:53:46.000Z,6.19
2022-10-11T04:54:46.000Z,6.20
2022-10-11T04:55:46.000Z,6.21
2022-10-11T04:56:46.000Z,6.20
2022-10-11T04:57:46.000Z,6.20
2022-10-11T04:58:46.000Z,6.19
2022-10-11T04:59:46.000Z,6.20
2022-10-11T05:00:46.000Z,6.20
2022-10-11T05:01:46.000Z,6.19
2022-10-11T05:02:46.000Z,6.16
2022-10-11T05:03:46.000Z,6.24
2022-10-11T05:04:46.000Z,6.25
2022-10-11T05:05:46.000Z,6.24
2022-10-11T05:06:46.000Z,6.27
2022-10-11T05:07:46.000Z,6.25
2022-10-11T05:08:46.000Z,6.25
2022-10-11T05:09:46.000Z,6.25
2022-10-11T05:10:46.000Z,6.21
2022-10-11T05:11:46.000Z,6.19
2022-10-11T05:12:46.000Z,6.19
2022-10-11T05:13:46.000Z,6.19
2022-10-11T05:14:46.000Z,6.16
2022-10-11T05:15:46.000Z,6.14
2022-10-11T05:16:46.000Z,6.16
2022-10-11T05:17:46.000Z,6.14
2022-10-11T05:18:46.000Z,6.17
2022-10-11T05:19:46.000Z,6.13
2022-10-11T05:20:46.000Z,6.14
2022-10-11T05:21:46.000Z,6.10
2022-10-11T05:22:46.000Z,6.08
2022-10-11T05:23:46.000Z,6.10
2022-10-11T05:24:46.000Z,6.08
2022-10-11T05:25:46.000Z,6.05
2022-10-11T05:26:46.000Z,6.05
2022-10-11T05:27:46.000Z,6.01
2022-10-11T05:28:46.000Z,5.98
2022-10-11T05:29:46.000Z,5.96
2022-10-11T05:30:46.000Z,6.01
2022-10-11T05:31:46.000Z,5.99
2022-10-11T05:32:46.000Z,5.96
2022-10-11T05:33:46.000Z,5.99
2022-10-11T05:34:46.000Z,5.98
2022-10-11T05:35:46.000Z,5.96
2022-10-11T05:36:46.000Z,5.95
2022-10-11T05:37:46.000Z,5.98
2022-10-11T05:38:46.000Z,5.98
2022-10-11T05:39:46.000Z,6.08
2022-10-11T05:40:46.000Z,6.03
2022-10-11T05:41:46.000Z,6.08
2022-10-11T05:42:46.000Z,6.05
2022-10-11T05:43:46.000Z,6.08
2022-10-11T05:44:46.000Z,6.08
2022-10-11T05:45:45.000Z,6.06
2022-10-11T05:46:45.000Z,6.11
2022-10-11T05:47:45.000Z,6.11
2022-10-11T05:48:45.000Z,6.06
2022-10-11T05:49:45.000Z,6.11
2022-10-11T05:50:45.000Z,6.11
2022-10-11T05:51:45.000Z,6.13
2022-10-11T05:52:45.000Z,6.10
2022-10-11T05:53:45.000Z,6.11
2022-10-11T05:54:45.000Z,6.14
2022-10-11T05:55:45.000Z,6.13
2022-10-11T05:56:45.000Z,6.20
2022-10-11T05:57:45.000Z,6.20
2022-10-11T05:58:45.000Z,6.20
2022-10-11T05:59:45.000Z,6.24
2022-10-11T06:00:45.000Z,6.25
2022-10-11T06:01:45.000Z,6.28
2022-10-11T06:02:45.000Z,6.28
2022-10-11T06:03:45.000Z,6.27
2022-10-11T06:04:45.000Z,6.33
2022-10-11T06:05:45.000Z,6.33
2022-10-11T06:06:45.000Z,6.35
2022-10-11T06:07:45.000Z,6.33
2022-10-11T06:08:45.000Z,6.38
2022-10-11T06:09:45.000Z,6.46
2022-10-11T06:10:45.000Z,6.45
2022-10-11T06:11:45.000Z,6.51
2022-10-11T06:12:45.000Z,6.53
2022-10-11T06:13:45.000Z,6.53
2022-10-11T06:14:45.000Z,6.55
2022-10-11T06:15:45.000Z,6.58
2022-10-11T06:16:45.000Z,6.55
2022-10-11T06:17:45.000Z,6.64
2022-10-11T06:18:45.000Z,6.68
2022-10-11T06:19:45.000Z,6.69
2022-10-11T06:20:45.000Z,6.75
2022-10-11T06:21:45.000Z,6.76
2022-10-11T06:22:45.000Z,6.76
2022-10-11T06:23:45.000Z,6.81
2022-10-11T06:24:45.000Z,6.86
2022-10-11T06:25:45.000Z,6.83
2022-10-11T06:26:45.000Z,6.89
2022-10-11T06:27:45.000Z,6.91
2022-10-11T06:28:45.000Z,6.99
2022-10-11T06:29:45.000Z,7.00
2022-10-11T06:30:45.000Z,7.05
2022-10-11T06:31:45.000Z,7.11
2022-10-11T06:32:45.000Z,7.21
2022-10-11T06:33:45.000Z,7.23
2022-10-11T06:34:45.000Z,7.23
2022-10-11T06:35:45.000Z,7.29
2022-10-11T06:36:45.000Z,7.30
2022-10-11T06:37:45.000Z,7.32
2022-10-11T06:38:45.000Z,7.39
2022-10-11T06:39:45.000Z,7.39
2022-10-11T06:40:45.000Z,7.45
2022-10-11T06:41:45.000Z,7.48
2022-10-11T06:42:45.000Z,7.55
2022-10-11T06:43:45.000Z,7.62
2022-10-11T06:44:45.000Z,7.67
2022-10-11T06:45:45.000Z,7.76
2022-10-11T06:45:45.000Z,7.76
2022-10-11T06:46:45.000Z,7.81
2022-10-11T06:46:45.000Z,7.81
2022-10-11T06:47:45.000Z,7.85
2022-10-11T06:47:45.000Z,7.85
2022-10-11T06:48:45.000Z,7.85
2022-10-11T06:48:45.000Z,7.85
2022-10-11T06:49:45.000Z,7.89
2022-10-11T06:49:45.000Z,7.89
2022-10-11T06:50:45.000Z,7.96
2022-10-11T06:51:45.000Z,7.99
2022-10-11T06:52:45.000Z,8.06
2022-10-11T06:53:45.000Z,8.10
2022-10-11T06:54:45.000Z,8.10
2022-10-11T06:55:45.000Z,8.17
2022-10-11T06:56:45.000Z,8.24
2022-10-11T06:57:45.000Z,8.25
2022-10-11T06:58:45.000Z,8.27
2022-10-11T06:59:44.000Z,8.29
2022-10-11T07:00:44.000Z,8.32
2022-10-11T07:01:44.000Z,8.37
2022-10-11T07:02:44.000Z,8.42
2022-10-11T07:03:44.000Z,8.45
2022-10-11T07:04:44.000Z,8.49
2022-10-11T07:05:44.000Z,8.52
2022-10-11T07:06:44.000Z,8.57
2022-10-11T07:07:44.000Z,8.64
2022-10-11T07:08:44.000Z,8.73
2022-10-11T07:09:44.000Z,8.80
2022-10-11T07:10:44.000Z,8.82
2022-10-11T07:11:44.000Z,8.91
2022-10-11T07:12:44.000Z,8.96
2022-10-11T07:13:44.000Z,9.00
2022-10-11T07:14:44.000Z,9.01
2022-10-11T07:15:44.000Z,9.01
2022-10-11T07:16:44.000Z,9.10
2022-10-11T07:17:44.000Z,9.13
2022-10-11T07:18:44.000Z,9.12
2022-10-11T07:19:44.000Z,9.16
2022-10-11T07:20:44.000Z,9.19
2022-10-11T07:21:44.000Z,9.20
2022-10-11T07:22:44.000Z,9.22
2022-10-11T07:23:44.000Z,9.27
2022-10-11T07:24:44.000Z,9.27
2022-10-11T07:25:44.000Z,9.35
2022-10-11T07:26:44.000Z,9.35
2022-10-11T07:27:44.000Z,9.38
2022-10-11T07:28:44.000Z,9.45
2022-10-11T07:29:44.000Z,9.42
2022-10-11T07:30:44.000Z,9.44
2022-10-11T07:31:44.000Z,9.52
2022-10-11T07:32:44.000Z,9.55
2022-10-11T07:33:44.000Z,9.60
2022-10-11T07:34:44.000Z,9.65
2022-10-11T07:35:44.000Z,9.67
2022-10-11T07:36:44.000Z,9.70
2022-10-11T07:37:44.000Z,9.73
2022-10-11T07:38:44.000Z,9.75
2022-10-11T07:39:44.000Z,9.83
2022-10-11T07:40:44.000Z,9.81
2022-10-11T07:41:44.000Z,9.88
2022-10-11T07:42:44.000Z,9.92
2022-10-11T07:43:44.000Z,9.99
2022-10-11T07:44:44.000Z,10.01
2022-10-11T07:45:44.000Z,10.07
2022-10-11T07:46:44.000Z,10.14
2022-10-11T07:47:44.000Z,10.18
2022-10-11T07:48:44.000Z,10.22
2022-10-11T07:49:44.000Z,10.31
2022-10-11T07:50:44.000Z,10.34
2022-10-11T07:51:44.000Z,10.39
2022-10-11T07:52:44.000Z,10.46
2022-10-11T07:53:44.000Z,10.51
2022-10-11T07:54:44.000Z,10.57
2022-10-11T07:55:44.000Z,10.65
2022-10-11T07:56:44.000Z,10.69
2022-10-11T07:57:44.000Z,10.73
2022-10-11T07:58:44.000Z,10.80
2022-10-11T07:59:44.000Z,10.83
2022-10-11T08:00:44.000Z,10.91
2022-10-11T08:01:44.000Z,10.94
2022-10-11T08:02:44.000Z,11.01
2022-10-11T08:03:44.000Z,11.05
2022-10-11T08:04:44.000Z,11.08
2022-10-11T08:05:44.000Z,11.16
2022-10-11T08:06:44.000Z,11.19
2022-10-11T08:07:44.000Z,11.21
2022-10-11T08:08:44.000Z,11.27
2022-10-11T08:09:44.000Z,11.30
2022-10-11T08:10:44.000Z,11.33
2022-10-11T08:11:44.000Z,11.36
2022-10-11T08:12:44.000Z,11.42
2022-10-11T08:13:44.000Z,11.49
2022-10-11T08:14:43.000Z,11.56
2022-10-11T08:15:43.000Z,11.60
2022-10-11T08:16:43.000Z,11.66
2022-10-11T08:17:43.000Z,11.70
2022-10-11T08:18:43.000Z,11.74
2022-10-11T08:19:43.000Z,11.79
2022-10-11T08:20:43.000Z,11.81
2022-10-11T08:21:43.000Z,11.87
2022-10-11T08:22:43.000Z,11.88
2022-10-11T08:23:43.000Z,11.93
2022-10-11T08:24:43.000Z,11.97
2022-10-11T08:25:43.000Z,12.00
2022-10-11T08:26:43.000Z,12.05
2022-10-11T08:27:43.000Z,12.11
2022-10-11T08:28:43.000Z,12.15
2022-10-11T08:29:43.000Z,12.18
2022-10-11T08:30:43.000Z,12.22
2022-10-11T08:31:43.000Z,12.22
2022-10-11T08:32:43.000Z,12.29
2022-10-11T08:33:43.000Z,12.26
2022-10-11T08:34:43.000Z,12.33
2022-10-11T08:35:43.000Z,12.33
2022-10-11T08:36:43.000Z,12.34
2022-10-11T08:37:43.000Z,12.38
2022-10-11T08:38:43.000Z,12.40
2022-10-11T08:39:43.000Z,12.46
2022-10-11T08:40:43.000Z,12.54
2022-10-11T08:41:43.000Z,12.55
2022-10-11T08:42:43.000Z,12.63
2022-10-11T08:43:43.000Z,12.63
2022-10-11T08:44:43.000Z,12.70
2022-10-11T08:45:43.000Z,12.69
2022-10-11T08:46:43.000Z,12.73
2022-10-11T08:47:43.000Z,12.76
2022-10-11T08:48:43.000Z,12.80
2022-10-11T08:49:43.000Z,12.81
2022-10-11T08:50:43.000Z,12.88
2022-10-11T08:51:43.000Z,12.92
2022-10-11T08:52:43.000Z,12.98
2022-10-11T08:53:43.000Z,12.99
2022-10-11T08:54:43.000Z,12.98
2022-10-11T08:55:43.000Z,13.03
2022-10-11T08:56:43.000Z,13.03
2022-10-11T08:57:43.000Z,13.01
2022-10-11T08:58:43.000Z,13.06
2022-10-11T08:59:43.000Z,13.13
2022-10-11T09:00:43.000Z,13.19
2022-10-11T09:01:43.000Z,13.21
2022-10-11T09:02:43.000Z,13.21
2022-10-11T09:03:43.000Z,13.25
2022-10-11T09:04:43.000Z,13.31
2022-10-11T09:05:43.000Z,13.32
2022-10-11T09:06:43.000Z,13.35
2022-10-11T09:07:43.000Z,13.44
2022-10-11T09:08:43.000Z,13.46
2022-10-11T09:09:43.000Z,13.48
2022-10-11T09:10:43.000Z,13.54
2022-10-11T09:11:43.000Z,13.59
2022-10-11T09:12:43.000Z,13.61
2022-10-11T09:13:43.000Z,13.65
2022-10-11T09:14:43.000Z,13.73
2022-10-11T09:15:43.000Z,13.75
2022-10-11T09:16:43.000Z,13.79
2022-10-11T09:17:43.000Z,13.80
2022-10-11T09:18:43.000Z,13.83
2022-10-11T09:19:43.000Z,13.86
2022-10-11T09:20:43.000Z,13.93
2022-10-11T09:21:43.000Z,13.98
2022-10-11T09:22:43.000Z,13.99
2022-10-11T09:23:43.000Z,14.04
2022-10-11T09:24:43.000Z,14.08
2022-10-11T09:25:43.000Z,14.08
2022-10-11T09:26:43.000Z,14.12
2022-10-11T09:27:42.000Z,14.13
2022-10-11T09:28:42.000Z,14.16
2022-10-11T09:29:42.000Z,14.12
2022-10-11T09:30:42.000Z,14.17
2022-10-11T09:31:42.000Z,14.19
2022-10-11T09:32:42.000Z,14.26
2022-10-11T09:33:42.000Z,14.34
2022-10-11T09:34:42.000Z,14.38
2022-10-11T09:35:42.000Z,14.48
2022-10-11T09:36:42.000Z,14.59
2022-10-11T09:37:42.000Z,14.67
2022-10-11T09:38:42.000Z,14.74
2022-10-11T09:39:42.000Z,14.85
2022-10-11T09:40:42.000Z,14.90
2022-10-11T09:41:42.000Z,15.00
2022-10-11T09:42:42.000Z,15.12
2022-10-11T09:43:42.000Z,15.25
2022-10-11T09:44:42.000Z,15.35
2022-10-11T09:45:42.000Z,15.44
2022-10-11T09:46:42.000Z,15.55
2022-10-11T09:47:42.000Z,15.67
2022-10-11T09:48:42.000Z,15.81
2022-10-11T09:49:42.000Z,15.88
2022-10-11T09:50:42.000Z,15.86
2022-10-11T09:51:42.000Z,15.80
2022-10-11T09:52:42.000Z,15.88
2022-10-11T09:53:42.000Z,16.11
2022-10-11T09:54:42.000Z,16.25
2022-10-11T09:55:42.000Z,16.32
2022-10-11T09:56:42.000Z,16.51
2022-10-11T09:57:42.000Z,16.62
2022-10-11T09:58:42.000Z,16.77
2022-10-11T09:59:42.000Z,16.78
2022-10-11T10:00:42.000Z,16.95
2022-10-11T10:01:42.000Z,17.00
2022-10-11T10:02:42.000Z,16.90
2022-10-11T10:03:42.000Z,16.81
2022-10-11T10:04:42.000Z,16.67
2022-10-11T10:05:42.000Z,16.54
2022-10-11T10:06:42.000Z,16.37
2022-10-11T10:07:42.000Z,16.18
2022-10-11T10:08:42.000Z,16.03
2022-10-11T10:09:42.000Z,15.95
2022-10-11T10:10:42.000Z,15.84
2022-10-11T10:11:42.000Z,15.77
2022-10-11T10:12:42.000Z,15.80
2022-10-11T10:13:42.000Z,15.71
2022-10-11T10:14:42.000Z,15.66
2022-10-11T10:15:42.000Z,15.56
2022-10-11T10:16:42.000Z,15.49
2022-10-11T10:17:42.000Z,15.38
2022-10-11T10:18:42.000Z,15.51
2022-10-11T10:19:42.000Z,15.85
2022-10-11T10:20:42.000Z,16.23
2022-10-11T10:21:42.000Z,16.57
2022-10-11T10:22:42.000Z,16.87
2022-10-11T10:23:42.000Z,17.05
2022-10-11T10:24:42.000Z,16.98
2022-10-11T10:25:42.000Z,16.98
2022-10-11T10:26:42.000Z,16.85
2022-10-11T10:27:42.000Z,16.75
2022-10-11T10:28:42.000Z,16.66
2022-10-11T10:29:42.000Z,16.59
2022-10-11T10:30:42.000Z,16.48
2022-10-11T10:31:42.000Z,16.50
2022-10-11T10:32:42.000Z,16.59
2022-10-11T10:33:42.000Z,16.59
2022-10-11T10:34:42.000Z,16.51
2022-10-11T10:35:42.000Z,16.47
2022-10-11T10:36:42.000Z,16.44
2022-10-11T10:37:42.000Z,16.42
2022-10-11T10:38:42.000Z,16.65
2022-10-11T10:39:42.000Z,16.77
2022-10-11T10:40:41.000Z,16.73
2022-10-11T10:41:41.000Z,16.78
2022-10-11T10:42:41.000Z,16.80
2022-10-11T10:43:41.000Z,16.77
2022-10-11T10:44:41.000Z,16.77
2022-10-11T10:45:41.000Z,16.87
2022-10-11T10:46:41.000Z,16.87
2022-10-11T10:47:41.000Z,16.72
2022-10-11T10:48:41.000Z,16.65
2022-10-11T10:49:41.000Z,16.57
2022-10-11T10:50:41.000Z,16.72
2022-10-11T10:51:41.000Z,17.14
2022-10-11T10:52:41.000Z,17.51
2022-10-11T10:53:41.000Z,17.79
2022-10-11T10:54:41.000Z,17.86
2022-10-11T10:55:41.000Z,18.01
2022-10-11T10:56:41.000Z,18.26
2022-10-11T10:57:41.000Z,18.31
2022-10-11T10:58:41.000Z,18.56
2022-10-11T10:59:41.000Z,18.90
2022-10-11T11:00:41.000Z,19.13
2022-10-11T11:01:41.000Z,19.40
2022-10-11T11:02:41.000Z,19.75
2022-10-11T11:03:41.000Z,20.05
2022-10-11T11:04:41.000Z,20.35
2022-10-11T11:05:41.000Z,20.61
2022-10-11T11:06:41.000Z,20.88
2022-10-11T11:07:41.000Z,21.15
2022-10-11T11:08:41.000Z,21.28
2022-10-11T11:09:41.000Z,21.30
2022-10-11T11:10:41.000Z,21.22
2022-10-11T11:11:41.000Z,21.18
2022-10-11T11:12:41.000Z,21.05
2022-10-11T11:13:41.000Z,20.88
2022-10-11T11:14:41.000Z,20.60
2022-10-11T11:15:41.000Z,20.37
2022-10-11T11:16:41.000Z,20.38
2022-10-11T11:17:41.000Z,20.51
2022-10-11T11:18:41.000Z,20.73
2022-10-11T11:19:41.000Z,20.90
2022-10-11T11:20:41.000Z,21.01
2022-10-11T11:21:41.000Z,21.03
2022-10-11T11:22:41.000Z,21.13
2022-10-11T11:23:41.000Z,21.16
2022-10-11T11:24:41.000Z,21.19
2022-10-11T11:25:41.000Z,21.31
2022-10-11T11:26:41.000Z,21.37
2022-10-11T11:27:41.000Z,21.46
2022-10-11T11:28:41.000Z,21.51
2022-10-11T11:29:41.000Z,21.56
2022-10-11T11:30:41.000Z,21.51
2022-10-11T11:31:41.000Z,21.53
2022-10-11T11:32:41.000Z,21.45
2022-10-11T11:33:41.000Z,21.51
2022-10-11T11:34:41.000Z,21.37
2022-10-11T11:35:41.000Z,20.97
2022-10-11T11:36:41.000Z,20.68
2022-10-11T11:37:41.000Z,20.25
2022-10-11T11:38:41.000Z,19.82
2022-10-11T11:39:41.000Z,19.45
2022-10-11T11:40:41.000Z,19.01
2022-10-11T11:41:41.000Z,18.51
2022-10-11T11:42:41.000Z,18.10
2022-10-11T11:43:41.000Z,17.79
2022-10-11T11:44:41.000Z,17.51
2022-10-11T11:45:41.000Z,17.22
2022-10-11T11:46:41.000Z,17.00
2022-10-11T11:47:41.000Z,16.78
2022-10-11T11:48:41.000Z,16.63
2022-10-11T11:49:41.000Z,16.44
2022-10-11T11:50:41.000Z,16.26
2022-10-11T11:51:41.000Z,16.07
2022-10-11T11:52:41.000Z,16.01
2022-10-11T11:53:41.000Z,15.88
2022-10-11T11:54:40.000Z,15.78
2022-10-11T11:55:40.000Z,15.73
2022-10-11T11:56:40.000Z,15.66
2022-10-11T11:57:40.000Z,15.58
2022-10-11T11:58:40.000Z,15.52
2022-10-11T11:59:40.000Z,15.46
2022-10-11T12:00:40.000Z,15.44
2022-10-11T12:01:40.000Z,15.41
2022-10-11T12:02:40.000Z,15.41
2022-10-11T12:03:40.000Z,15.51
2022-10-11T12:04:40.000Z,15.59
2022-10-11T12:05:40.000Z,15.74
2022-10-11T12:06:40.000Z,15.85
2022-10-11T12:07:40.000Z,16.04
2022-10-11T12:08:40.000Z,16.04
2022-10-11T12:09:40.000Z,16.06
2022-10-11T12:10:40.000Z,16.07
2022-10-11T12:11:40.000Z,16.07
2022-10-11T12:12:40.000Z,16.10
2022-10-11T12:13:40.000Z,16.11
2022-10-11T12:14:40.000Z,16.13
2022-10-11T12:15:40.000Z,16.16
2022-10-11T12:16:40.000Z,16.25
2022-10-11T12:17:40.000Z,16.26
2022-10-11T12:18:40.000Z,16.30
2022-10-11T12:19:40.000Z,16.37
2022-10-11T12:20:40.000Z,16.60
2022-10-11T12:21:40.000Z,16.87
2022-10-11T12:22:40.000Z,17.06
2022-10-11T12:23:40.000Z,17.12
2022-10-11T12:24:40.000Z,17.24
2022-10-11T12:25:40.000Z,17.39
2022-10-11T12:26:40.000Z,17.62
2022-10-11T12:27:40.000Z,17.65
2022-10-11T12:28:40.000Z,17.47
2022-10-11T12:29:40.000Z,17.42
2022-10-11T12:30:40.000Z,17.38
2022-10-11T12:31:40.000Z,17.27
2022-10-11T12:32:40.000Z,17.15
2022-10-11T12:33:40.000Z,17.09
2022-10-11T12:34:40.000Z,16.96
2022-10-11T12:35:40.000Z,17.07
2022-10-11T12:36:40.000Z,17.25
2022-10-11T12:37:40.000Z,17.38
2022-10-11T12:38:40.000Z,17.55
2022-10-11T12:39:40.000Z,17.76
2022-10-11T12:40:40.000Z,17.98
2022-10-11T12:41:40.000Z,18.17
2022-10-11T12:42:40.000Z,18.35
2022-10-11T12:43:40.000Z,18.59
2022-10-11T12:44:40.000Z,18.83
2022-10-11T12:45:40.000Z,19.09
2022-10-11T12:46:40.000Z,19.35
2022-10-11T12:47:40.000Z,19.52
2022-10-11T12:48:40.000Z,19.72
2022-10-11T12:49:40.000Z,19.90
2022-10-11T12:50:40.000Z,20.16
2022-10-11T12:51:40.000Z,20.37
2022-10-11T12:52:40.000Z,20.58
2022-10-11T12:53:40.000Z,20.79